McCrary, Mississippi
Current Conditions -  °F | °C
As of 2:38 AM on Sunday 26 Oct 2014 (Local Time) from KCBM Reporting Station
Haze Haze  
Wind Chill: 55°   Ceiling: Unl
Heat Index: 55°   Visibility: 5mi
Dew Point: 55°   Wind: 0mph
Humidity: 100%   Direction: NA
Pressure: 30.03"   Gusts: NA
Location:  33.455°N, 88.5512°W
Report Text: KCBM 260738Z AUTO 00000KT 5SM BR CLR 13/13 A3003 RMK AO2
Loading
Personal Weather Stations






























Interactive Weather Map
Tropical Storm Tracking
New forecast layout! Learn more

10-Day Weather Forecast

Advertisements
Track Severe Weather on mobile